TimeCST,TemperatureF,Dew PointF,Humidity,Sea Level PressureIn,VisibilityMPH,Wind Direction,Wind SpeedMPH,Gust SpeedMPH,PrecipitationIn,Events,Conditions,WindDirDegrees,DateUTC
12:15 AM,-5.8,-13.0,71,30.42,10.0,NNW,12.7,-,N/A,,Clear,330,2014-01-21 06:15:00
12:35 AM,-5.8,-14.8,65,30.42,10.0,NNW,16.1,-,N/A,,Clear,340,2014-01-21 06:35:00
12:55 AM,-5.8,-14.8,65,30.42,10.0,NNW,11.5,19.6,N/A,,Clear,340,2014-01-21 06:55:00
1:15 AM,-7.6,-14.8,71,30.43,10.0,North,12.7,-,N/A,,Clear,350,2014-01-21 07:15:00
1:35 AM,-7.6,-16.6,65,30.43,10.0,NNW,11.5,-,N/A,,Clear,340,2014-01-21 07:35:00
1:55 AM,-7.6,-16.6,65,30.42,10.0,NNW,11.5,-,N/A,,Clear,340,2014-01-21 07:55:00
2:15 AM,-9.4,-16.6,71,30.43,10.0,North,13.8,-,N/A,,Clear,350,2014-01-21 08:15:00
2:35 AM,-9.4,-16.6,71,30.43,10.0,NNW,12.7,-,N/A,,Clear,340,2014-01-21 08:35:00
2:55 AM,-9.4,-18.4,65,30.44,10.0,NNW,10.4,-,N/A,,Clear,330,2014-01-21 08:55:00
3:15 AM,-9.4,-18.4,65,30.44,10.0,NW,8.1,13.8,N/A,,Clear,320,2014-01-21 09:15:00
3:35 AM,-11.2,-18.4,70,30.44,10.0,NW,10.4,-,N/A,,Clear,310,2014-01-21 09:35:00
3:55 AM,-11.2,-18.4,70,30.44,10.0,NW,10.4,-,N/A,,Clear,310,2014-01-21 09:55:00
4:15 AM,-11.2,-20.2,64,30.44,10.0,NW,8.1,-,N/A,,Clear,320,2014-01-21 10:15:00
4:35 AM,-11.2,-20.2,64,30.44,10.0,NW,9.2,-,N/A,,Clear,320,2014-01-21 10:35:00
4:55 AM,-11.2,-20.2,64,30.43,10.0,NW,10.4,-,N/A,,Clear,320,2014-01-21 10:55:00
5:15 AM,-11.2,-20.2,64,30.42,10.0,NW,9.2,-,N/A,,Clear,310,2014-01-21 11:15:00
5:35 AM,-11.2,-20.2,64,30.43,10.0,WNW,8.1,-,N/A,,Clear,290,2014-01-21 11:35:00
5:55 AM,-11.2,-20.2,64,30.41,10.0,WNW,10.4,-,N/A,,Clear,300,2014-01-21 11:55:00
6:15 AM,-13.0,-20.2,70,30.41,10.0,NW,10.4,-,N/A,,Clear,310,2014-01-21 12:15:00
6:35 AM,-11.2,-20.2,64,30.40,10.0,NW,10.4,-,N/A,,Clear,310,2014-01-21 12:35:00
6:55 AM,-11.2,-20.2,64,30.38,10.0,NW,9.2,-,N/A,,Clear,320,2014-01-21 12:55:00
7:15 AM,-11.2,-20.2,64,30.39,10.0,WNW,6.9,-,N/A,,Clear,300,2014-01-21 13:15:00
7:35 AM,-11.2,-20.2,64,30.38,10.0,NW,8.1,-,N/A,,Clear,310,2014-01-21 13:35:00
7:55 AM,-11.2,-18.4,70,30.39,10.0,WNW,8.1,-,N/A,,Clear,290,2014-01-21 13:55:00
8:15 AM,-9.4,-18.4,65,30.38,10.0,West,9.2,-,N/A,,Clear,280,2014-01-21 14:15:00
8:35 AM,-9.4,-18.4,65,30.38,10.0,West,6.9,-,N/A,,Clear,280,2014-01-21 14:35:00
8:55 AM,-9.4,-16.6,71,30.38,10.0,WNW,9.2,-,N/A,,Clear,290,2014-01-21 14:55:00
9:15 AM,-7.6,-16.6,65,30.38,10.0,WNW,8.1,-,N/A,,Clear,290,2014-01-21 15:15:00
9:35 AM,-7.6,-16.6,65,30.37,10.0,West,6.9,-,N/A,,Clear,280,2014-01-21 15:35:00
9:55 AM,-5.8,-14.8,65,30.37,10.0,WSW,5.8,-,N/A,,Clear,250,2014-01-21 15:55:00
10:15 AM,-5.8,-14.8,65,30.36,10.0,West,5.8,-,N/A,,Clear,260,2014-01-21 16:15:00
10:35 AM,-4.0,-14.8,60,30.35,10.0,SW,4.6,-,N/A,,Clear,230,2014-01-21 16:35:00
10:55 AM,-4.0,-13.0,65,30.34,10.0,SSW,8.1,-,N/A,,Clear,210,2014-01-21 16:55:00
11:15 AM,-2.2,-13.0,60,30.31,10.0,South,8.1,-,N/A,,Clear,190,2014-01-21 17:15:00
11:35 AM,-2.2,-11.2,66,30.30,10.0,South,9.2,-,N/A,,Clear,180,2014-01-21 17:35:00
11:55 AM,-0.4,-11.2,60,30.27,10.0,South,10.4,-,N/A,,Clear,190,2014-01-21 17:55:00
12:15 PM,-0.4,-9.4,66,30.25,10.0,South,11.5,-,N/A,,Clear,180,2014-01-21 18:15:00
12:35 PM,-0.4,-9.4,66,30.23,10.0,South,12.7,-,N/A,,Scattered Clouds,190,2014-01-21 18:35:00
12:55 PM,1.4,-7.6,66,30.21,10.0,SSW,13.8,-,N/A,,Scattered Clouds,200,2014-01-21 18:55:00
1:15 PM,3.2,-5.8,66,30.18,10.0,SSE,10.4,-,N/A,,Clear,160,2014-01-21 19:15:00
1:35 PM,3.2,-5.8,66,30.17,10.0,South,15.0,-,N/A,,Clear,190,2014-01-21 19:35:00
1:55 PM,5.0,-5.8,61,30.15,10.0,SSW,16.1,-,N/A,,Clear,200,2014-01-21 19:55:00
2:15 PM,5.0,-5.8,61,30.12,10.0,South,16.1,-,N/A,,Clear,190,2014-01-21 20:15:00
2:35 PM,5.0,-4.0,66,30.11,10.0,South,16.1,-,N/A,,Partly Cloudy,180,2014-01-21 20:35:00
2:55 PM,6.8,-4.0,61,30.11,10.0,South,15.0,-,N/A,,Partly Cloudy,180,2014-01-21 20:55:00
3:15 PM,6.8,-4.0,61,30.08,10.0,South,15.0,-,N/A,,Scattered Clouds,170,2014-01-21 21:15:00
3:35 PM,6.8,-2.2,67,30.07,10.0,SSE,16.1,-,N/A,,Scattered Clouds,160,2014-01-21 21:35:00
3:55 PM,8.6,-2.2,62,30.07,10.0,SSE,15.0,20.7,N/A,,Scattered Clouds,160,2014-01-21 21:55:00
4:15 PM,8.6,-2.2,62,30.05,10.0,South,17.3,-,N/A,,Overcast,170,2014-01-21 22:15:00
4:35 PM,8.6,-0.4,67,30.05,2.0,SSE,16.1,24.2,N/A,Snow,Light Snow,160,2014-01-21 22:35:00
4:55 PM,8.6,1.4,73,30.07,9.0,South,15.0,20.7,N/A,Snow,Light Snow,170,2014-01-21 22:55:00
5:15 PM,8.6,1.4,73,30.05,10.0,SSE,15.0,21.9,N/A,,Overcast,160,2014-01-21 23:15:00
5:35 PM,8.6,1.4,73,30.07,10.0,South,13.8,19.6,N/A,,Overcast,170,2014-01-21 23:35:00
5:55 PM,8.6,1.4,73,30.07,10.0,South,15.0,-,N/A,,Overcast,180,2014-01-21 23:55:00
6:15 PM,10.4,1.4,67,30.06,10.0,South,15.0,-,N/A,,Overcast,180,2014-01-22 00:15:00
6:35 PM,10.4,1.4,67,30.06,10.0,South,13.8,-,N/A,,Overcast,180,2014-01-22 00:35:00
6:55 PM,10.4,1.4,67,30.05,10.0,South,12.7,-,N/A,,Overcast,190,2014-01-22 00:55:00
7:15 PM,10.4,-0.4,62,30.05,10.0,South,13.8,-,N/A,,Overcast,190,2014-01-22 01:15:00
7:35 PM,10.4,-0.4,62,30.05,10.0,South,13.8,-,N/A,,Overcast,190,2014-01-22 01:35:00
7:55 PM,10.4,-0.4,62,30.04,10.0,South,12.7,-,N/A,,Overcast,180,2014-01-22 01:55:00
8:15 PM,10.4,-0.4,62,30.03,10.0,South,12.7,-,N/A,,Overcast,180,2014-01-22 02:15:00
8:35 PM,10.4,-0.4,62,30.02,10.0,South,12.7,-,N/A,,Overcast,180,2014-01-22 02:35:00
8:55 PM,10.4,1.4,67,30.02,10.0,South,11.5,-,N/A,,Overcast,190,2014-01-22 02:55:00
9:15 PM,12.2,1.4,62,30.01,10.0,South,11.5,-,N/A,,Overcast,190,2014-01-22 03:15:00
9:35 PM,12.2,1.4,62,30.01,10.0,South,10.4,-,N/A,,Overcast,190,2014-01-22 03:35:00
9:55 PM,12.2,1.4,62,30.00,10.0,SSW,8.1,13.8,N/A,,Overcast,200,2014-01-22 03:55:00
10:15 PM,12.2,1.4,62,30.00,10.0,SSW,6.9,-,N/A,,Overcast,210,2014-01-22 04:15:00
10:35 PM,12.2,1.4,62,29.99,10.0,SSW,9.2,-,N/A,,Overcast,200,2014-01-22 04:35:00
10:55 PM,14.0,1.4,57,29.99,10.0,SW,6.9,-,N/A,,Overcast,220,2014-01-22 04:55:00
11:15 PM,14.0,3.2,62,29.99,10.0,SW,8.1,-,N/A,,Overcast,230,2014-01-22 05:15:00
11:35 PM,14.0,3.2,62,29.98,10.0,WSW,5.8,-,N/A,,Overcast,240,2014-01-22 05:35:00
11:55 PM,14.0,3.2,62,29.98,10.0,West,10.4,-,N/A,,Overcast,260,2014-01-22 05:55:00